createdAt,value
2023-05-10T06:23:10.007Z,99.90
2023-05-10T06:25:38.289Z,99.90
2023-05-10T06:28:05.668Z,99.90
2023-05-10T06:30:33.080Z,99.90
2023-05-10T06:33:00.513Z,99.90
2023-05-10T06:35:27.985Z,99.90
2023-05-10T06:37:56.294Z,99.80
2023-05-10T06:40:23.740Z,99.90
2023-05-10T06:42:51.313Z,99.10
2023-05-10T06:45:19.045Z,99.30
2023-05-10T06:47:46.925Z,99.00
2023-05-10T06:50:14.464Z,98.70
2023-05-10T06:52:44.162Z,98.50
2023-05-10T06:55:11.811Z,98.40
2023-05-10T06:57:39.239Z,98.30
2023-05-10T07:00:08.274Z,98.20
2023-05-10T07:02:35.793Z,98.10
2023-05-10T07:05:03.746Z,97.90
2023-05-10T07:07:31.277Z,98.20
2023-05-10T07:09:59.241Z,97.80
2023-05-10T07:12:27.198Z,97.70
2023-05-10T07:14:54.665Z,97.60
2023-05-10T07:17:22.397Z,97.60
2023-05-10T07:19:50.022Z,97.30
2023-05-10T07:22:18.086Z,97.40
2023-05-10T07:24:46.555Z,97.30
2023-05-10T07:27:14.436Z,97.90
2023-05-10T07:29:41.945Z,98.00
2023-05-10T07:32:09.467Z,97.40
2023-05-10T07:34:37.015Z,97.00
2023-05-10T07:37:04.466Z,97.00
2023-05-10T07:39:31.890Z,96.10
2023-05-10T07:41:59.253Z,95.60
2023-05-10T07:44:26.986Z,95.70
2023-05-10T07:46:54.435Z,95.30
2023-05-10T07:49:21.842Z,96.20
2023-05-10T07:51:49.853Z,95.80
2023-05-10T07:54:17.524Z,95.80
2023-05-10T07:56:48.413Z,95.30
2023-05-10T07:59:19.185Z,94.80
2023-05-10T08:01:46.807Z,94.60
2023-05-10T08:04:14.290Z,94.70
2023-05-10T08:06:42.023Z,94.70
2023-05-10T08:09:10.523Z,93.70
2023-05-10T08:11:38.101Z,94.40
2023-05-10T08:14:05.734Z,94.70
2023-05-10T08:16:33.620Z,94.50
2023-05-10T08:19:01.157Z,94.30
2023-05-10T08:21:28.660Z,93.50
2023-05-10T08:23:56.118Z,92.80
2023-05-10T08:26:23.577Z,92.50
2023-05-10T08:28:51.814Z,92.40
2023-05-10T08:31:19.407Z,92.20
2023-05-10T08:33:46.871Z,92.60
2023-05-10T08:36:16.316Z,92.30
2023-05-10T08:38:43.688Z,92.60
2023-05-10T08:41:12.228Z,91.90
2023-05-10T08:43:42.652Z,91.20
2023-05-10T08:46:11.811Z,92.00
2023-05-10T08:48:39.956Z,91.90
2023-05-10T08:51:09.281Z,91.50
2023-05-10T08:53:38.637Z,91.30
2023-05-10T08:56:07.246Z,91.80
2023-05-10T08:58:34.782Z,91.80
2023-05-10T09:01:03.014Z,92.20
2023-05-10T09:03:33.439Z,91.20
2023-05-10T09:06:00.875Z,91.20
2023-05-10T09:08:28.937Z,91.10
2023-05-10T09:10:57.603Z,91.40
2023-05-10T09:13:25.863Z,91.20
2023-05-10T09:15:54.053Z,90.80
2023-05-10T09:18:21.569Z,91.30
2023-05-10T09:20:50.563Z,90.60
2023-05-10T09:23:17.958Z,90.70
2023-05-10T09:25:45.380Z,90.70
2023-05-10T09:28:13.118Z,90.50
2023-05-10T09:30:41.460Z,90.30
2023-05-10T09:33:09.002Z,90.50
2023-05-10T09:35:37.192Z,90.90
2023-05-10T09:38:06.554Z,88.50
2023-05-10T09:40:34.360Z,86.10
2023-05-10T09:43:09.157Z,84.30
2023-05-10T09:45:38.952Z,86.10
2023-05-10T09:48:07.592Z,86.80
2023-05-10T09:50:35.510Z,85.20
2023-05-10T09:53:04.966Z,85.70
2023-05-10T09:55:47.775Z,85.60
2023-05-10T09:58:15.933Z,85.80
2023-05-10T10:00:49.047Z,86.80
2023-05-10T10:03:21.372Z,85.80
2023-05-10T10:05:49.942Z,85.30
2023-05-10T10:08:18.770Z,85.90
2023-05-10T10:10:47.252Z,85.20
2023-05-10T10:13:16.562Z,86.30
2023-05-10T10:15:48.720Z,86.30
2023-05-10T10:18:16.746Z,86.60
2023-05-10T10:20:44.399Z,86.70
2023-05-10T10:23:11.859Z,86.10
2023-05-10T10:25:40.001Z,86.90
2023-05-10T10:29:09.232Z,87.40
2023-05-10T10:32:29.633Z,86.40
2023-05-10T10:34:57.445Z,85.40
2023-05-10T10:37:41.935Z,84.30
2023-05-10T10:40:35.007Z,84.40
2023-05-10T10:43:30.445Z,83.90
2023-05-10T10:46:19.355Z,83.20
2023-05-10T10:49:11.536Z,83.00
2023-05-10T10:51:40.796Z,84.60
2023-05-10T10:54:12.770Z,84.90
2023-05-10T10:56:40.148Z,83.50
2023-05-10T10:59:10.094Z,83.50
2023-05-10T11:01:37.529Z,83.70
2023-05-10T11:04:05.038Z,84.60
2023-05-10T11:06:37.418Z,84.80
2023-05-10T11:09:13.547Z,82.60
2023-05-10T11:11:56.517Z,83.40
2023-05-10T11:14:24.439Z,82.90
2023-05-10T11:16:52.402Z,81.00
2023-05-10T11:19:20.832Z,79.10
2023-05-10T11:22:14.874Z,78.90
2023-05-10T11:24:57.053Z,79.90
2023-05-10T11:27:24.542Z,78.90
2023-05-10T11:29:54.973Z,77.80
2023-05-10T11:32:22.696Z,79.30
2023-05-10T11:34:50.226Z,79.10
2023-05-10T11:37:19.562Z,77.40
2023-05-10T11:39:50.720Z,77.70
2023-05-10T11:42:18.774Z,78.20
2023-05-10T11:44:48.905Z,76.70
2023-05-10T11:47:16.844Z,76.60
2023-05-10T11:49:47.111Z,77.50
2023-05-10T11:52:14.495Z,78.90
2023-05-10T11:54:56.383Z,78.40
2023-05-10T11:57:29.624Z,78.20
2023-05-10T11:59:59.032Z,78.70
2023-05-10T12:02:26.697Z,78.00
2023-05-10T12:04:56.097Z,78.20
2023-05-10T12:07:23.714Z,78.00
2023-05-10T12:10:17.084Z,80.30
2023-05-10T12:12:51.372Z,81.80
2023-05-10T12:15:23.099Z,82.10
2023-05-10T12:17:52.303Z,82.80
2023-05-10T12:20:28.584Z,83.40
2023-05-10T12:23:00.810Z,83.10
2023-05-10T12:25:36.925Z,82.60
2023-05-10T12:28:09.611Z,81.30
2023-05-10T12:30:38.900Z,80.20
2023-05-10T12:33:14.484Z,79.60
2023-05-10T12:35:54.532Z,79.40
2023-05-10T12:38:43.327Z,79.00
2023-05-10T12:41:17.709Z,78.60
2023-05-10T12:43:49.248Z,77.30
2023-05-10T12:46:18.844Z,76.70
2023-05-10T12:48:48.481Z,76.20
2023-05-10T12:51:18.419Z,76.70
2023-05-10T12:53:49.369Z,76.90
2023-05-10T12:56:17.080Z,77.30
2023-05-10T12:58:49.170Z,76.30
2023-05-10T13:01:16.938Z,75.80
2023-05-10T13:03:45.000Z,76.60
2023-05-10T13:06:14.496Z,74.50
2023-05-10T13:08:41.911Z,73.50
2023-05-10T13:11:09.379Z,73.60
2023-05-10T13:13:36.794Z,73.80
2023-05-10T13:16:04.407Z,73.90
2023-05-10T13:18:32.093Z,75.00
2023-05-10T13:20:59.602Z,75.30
2023-05-10T13:23:27.076Z,75.50
2023-05-10T13:25:54.479Z,75.40
2023-05-10T13:28:21.894Z,75.70
2023-05-10T13:30:49.316Z,76.30
2023-05-10T13:33:16.971Z,77.00
2023-05-10T13:35:45.082Z,76.80
2023-05-10T13:38:13.072Z,76.80
2023-05-10T13:40:40.597Z,76.40
2023-05-10T13:43:07.986Z,76.90
2023-05-10T13:45:35.401Z,78.50
2023-05-10T13:48:02.858Z,73.30
2023-05-10T13:50:30.901Z,73.10
2023-05-10T13:52:58.711Z,72.20
2023-05-10T13:55:26.320Z,70.60
2023-05-10T13:57:53.753Z,69.70
2023-05-10T14:00:21.550Z,69.50
2023-05-10T14:02:49.175Z,71.40
2023-05-10T14:05:18.751Z,72.50
2023-05-10T14:07:46.672Z,71.70
2023-05-10T14:10:14.135Z,71.80
2023-05-10T14:12:41.578Z,73.70
2023-05-10T14:15:11.553Z,71.50
2023-05-10T14:17:39.039Z,71.00
2023-05-10T14:20:08.203Z,71.20
2023-05-10T14:22:36.486Z,69.80
2023-05-10T14:25:04.455Z,70.70
2023-05-10T14:27:32.675Z,70.80
2023-05-10T14:30:00.230Z,71.50
2023-05-10T14:32:28.959Z,71.00
2023-05-10T14:34:56.792Z,71.30
2023-05-10T14:37:24.200Z,70.80
2023-05-10T14:39:51.604Z,70.60
2023-05-10T14:42:19.033Z,70.00
2023-05-10T14:44:46.481Z,66.50
2023-05-10T14:47:13.864Z,65.80
2023-05-10T14:49:41.937Z,65.00
2023-05-10T14:52:09.395Z,65.80
2023-05-10T14:54:36.929Z,67.10
2023-05-10T14:57:04.356Z,67.80
2023-05-10T14:59:31.735Z,68.60
2023-05-10T15:02:00.213Z,68.10
2023-05-10T15:04:28.519Z,70.00
2023-05-10T15:07:00.576Z,69.70
2023-05-10T15:09:28.846Z,70.20
2023-05-10T15:11:56.951Z,71.90
2023-05-10T15:14:24.870Z,73.20
2023-05-10T15:16:52.305Z,73.70
2023-05-10T15:19:20.716Z,76.00
2023-05-10T15:21:48.424Z,76.50
2023-05-10T15:24:15.977Z,72.60
2023-05-10T15:26:43.407Z,69.30
2023-05-10T15:29:10.837Z,69.60
2023-05-10T15:31:40.636Z,67.40
2023-05-10T15:34:08.052Z,68.80
2023-05-10T15:36:35.969Z,69.00
2023-05-10T15:39:04.756Z,69.60
2023-05-10T15:41:33.814Z,70.00
2023-05-10T15:44:01.802Z,69.90
2023-05-10T15:46:30.600Z,70.00
2023-05-10T15:49:01.197Z,71.70
2023-05-10T15:51:28.693Z,72.50
2023-05-10T15:54:06.498Z,72.50
2023-05-10T15:56:35.335Z,73.40
2023-05-10T15:59:03.899Z,72.60
2023-05-10T16:01:32.973Z,71.80
2023-05-10T16:04:01.519Z,71.70
2023-05-10T16:06:28.990Z,71.60
2023-05-10T16:08:56.518Z,72.50
2023-05-10T16:11:23.958Z,72.50
2023-05-10T16:13:51.630Z,73.30
2023-05-10T16:16:19.136Z,74.10
2023-05-10T16:18:46.702Z,75.20
2023-05-10T16:21:14.198Z,75.80
2023-05-10T16:23:41.750Z,76.60
2023-05-10T16:26:09.172Z,76.00
2023-05-10T16:28:37.395Z,76.80
2023-05-10T16:31:04.845Z,76.90
2023-05-10T16:33:32.384Z,77.10
2023-05-10T16:35:59.869Z,77.10
2023-05-10T16:38:27.655Z,75.20
2023-05-10T16:40:56.573Z,75.20
2023-05-10T16:43:26.032Z,75.60
2023-05-10T16:45:54.142Z,76.70
2023-05-10T16:48:21.641Z,79.10
2023-05-10T16:50:49.123Z,82.30
2023-05-10T16:53:16.601Z,83.70
2023-05-10T16:55:44.104Z,83.10
2023-05-10T16:58:11.488Z,83.20
2023-05-10T17:00:38.874Z,82.40
2023-05-10T17:03:06.387Z,82.90
2023-05-10T17:05:33.844Z,81.50
2023-05-10T17:08:01.359Z,81.90
2023-05-10T17:10:28.784Z,81.20
2023-05-10T17:12:56.166Z,81.90
2023-05-10T17:15:24.066Z,81.20
2023-05-10T17:17:52.060Z,81.90
2023-05-10T17:20:19.719Z,82.30
2023-05-10T17:22:47.199Z,82.50
2023-05-10T17:25:14.796Z,82.40
2023-05-10T17:27:42.936Z,80.50
2023-05-10T17:30:11.385Z,80.20
2023-05-10T17:32:38.911Z,80.00
2023-05-10T17:35:07.531Z,80.60
2023-05-10T17:37:34.921Z,80.80
2023-05-10T17:40:04.024Z,80.90
2023-05-10T17:42:31.465Z,81.50
2023-05-10T17:44:59.023Z,80.50
2023-05-10T17:47:26.478Z,81.30
2023-05-10T17:49:53.958Z,81.20
2023-05-10T17:52:21.515Z,81.20
2023-05-10T17:54:48.918Z,81.30
2023-05-10T17:57:16.316Z,82.00
2023-05-10T17:59:43.753Z,81.80
2023-05-10T18:02:11.156Z,82.10
2023-05-10T18:04:41.224Z,82.70
2023-05-10T18:07:10.122Z,82.00
2023-05-10T18:09:37.514Z,82.60
2023-05-10T18:12:06.092Z,82.90
2023-05-10T18:14:40.545Z,82.00
2023-05-10T18:17:09.686Z,82.60
2023-05-10T18:19:37.409Z,82.90
2023-05-10T18:22:05.508Z,82.90
2023-05-10T18:24:39.534Z,83.50
2023-05-10T18:27:09.298Z,84.20
2023-05-10T18:29:37.270Z,84.90
2023-05-10T18:32:05.441Z,85.70
2023-05-10T18:34:32.815Z,87.00
2023-05-10T18:37:00.394Z,86.40
2023-05-10T18:39:27.819Z,86.10
2023-05-10T18:41:55.871Z,86.40
2023-05-10T18:44:26.478Z,86.60
2023-05-10T18:46:54.393Z,86.70
2023-05-10T18:49:21.869Z,86.40
2023-05-10T18:51:49.309Z,86.60
2023-05-10T18:54:16.901Z,86.60
2023-05-10T18:56:45.350Z,86.90
2023-05-10T18:59:13.600Z,87.40
2023-05-10T19:01:41.913Z,87.50
2023-05-10T19:04:09.446Z,87.30
2023-05-10T19:06:37.136Z,87.70
2023-05-10T19:09:04.732Z,87.50
2023-05-10T19:11:32.312Z,87.70
2023-05-10T19:13:59.709Z,87.60
2023-05-10T19:16:29.888Z,87.70
2023-05-10T19:18:57.663Z,88.00
2023-05-10T19:21:25.835Z,88.00
2023-05-10T19:23:53.689Z,89.00
2023-05-10T19:26:22.581Z,88.10
2023-05-10T19:28:54.485Z,88.20
2023-05-10T19:31:22.478Z,88.60
2023-05-10T19:33:50.005Z,89.60
2023-05-10T19:36:17.420Z,88.30
2023-05-10T19:38:44.851Z,88.70
2023-05-10T19:41:13.031Z,88.20
2023-05-10T19:43:41.950Z,88.80
2023-05-10T19:46:09.906Z,88.50
2023-05-10T19:48:37.532Z,88.10
2023-05-10T19:51:08.499Z,89.40
2023-05-10T19:53:37.820Z,88.20
2023-05-10T19:56:07.247Z,87.40
2023-05-10T19:58:35.026Z,88.00
2023-05-10T20:01:02.824Z,87.60
2023-05-10T20:03:30.476Z,87.80
2023-05-10T20:05:57.939Z,87.40
2023-05-10T20:08:25.807Z,87.60
2023-05-10T20:10:53.301Z,87.70
2023-05-10T20:13:20.788Z,87.80
2023-05-10T20:15:49.095Z,88.10
2023-05-10T20:18:16.685Z,88.80
2023-05-10T20:20:44.163Z,88.40
2023-05-10T20:23:11.667Z,88.20
2023-05-10T20:25:39.629Z,88.10
2023-05-10T20:28:08.556Z,88.00
2023-05-10T20:30:36.151Z,88.30
2023-05-10T20:33:04.376Z,87.80
2023-05-10T20:35:33.042Z,87.60
2023-05-10T20:38:02.159Z,87.50
2023-05-10T20:40:29.557Z,87.90
2023-05-10T20:42:56.938Z,87.90
2023-05-10T20:45:25.191Z,88.50
2023-05-10T20:47:53.751Z,88.10
2023-05-10T20:50:21.327Z,87.70
2023-05-10T20:52:51.094Z,88.30
2023-05-10T20:55:19.867Z,88.20
2023-05-10T20:57:47.588Z,88.20
2023-05-10T21:00:16.246Z,88.30
2023-05-10T21:02:46.192Z,88.30
2023-05-10T21:05:13.749Z,88.80
2023-05-10T21:07:41.315Z,88.20
2023-05-10T21:10:11.466Z,88.50
2023-05-10T21:12:38.917Z,88.50
2023-05-10T21:15:08.236Z,88.90
2023-05-10T21:17:35.862Z,89.00
2023-05-10T21:20:03.814Z,88.80
2023-05-10T21:22:31.312Z,89.00
2023-05-10T21:24:58.707Z,89.10
2023-05-10T21:27:26.137Z,88.90
2023-05-10T21:29:53.749Z,88.70
2023-05-10T21:32:21.203Z,88.90
2023-05-10T21:34:48.656Z,88.90
2023-05-10T21:37:17.625Z,88.90
2023-05-10T21:39:45.231Z,89.10
2023-05-10T21:42:12.662Z,89.80
2023-05-10T21:44:40.032Z,89.20
2023-05-10T21:47:07.520Z,89.20
2023-05-10T21:49:35.115Z,90.00
2023-05-10T21:52:02.634Z,88.90
2023-05-10T21:54:30.026Z,88.40
2023-05-10T21:56:57.953Z,88.30
2023-05-10T21:59:25.352Z,88.30
2023-05-10T22:01:52.731Z,89.30
2023-05-10T22:04:20.112Z,89.00
2023-05-10T22:06:47.959Z,89.50
2023-05-10T22:09:15.339Z,90.00
2023-05-10T22:11:42.715Z,89.20
2023-05-10T22:14:10.121Z,88.20
2023-05-10T22:16:37.721Z,88.50
2023-05-10T22:19:05.316Z,88.20
2023-05-10T22:21:32.762Z,89.00
2023-05-10T22:24:00.171Z,89.50
2023-05-10T22:26:27.556Z,90.00
2023-05-10T22:28:54.963Z,90.00
2023-05-10T22:31:22.654Z,89.40
2023-05-10T22:33:50.198Z,88.20
2023-05-10T22:36:17.603Z,88.00
2023-05-10T22:38:45.024Z,88.70
2023-05-10T22:41:12.470Z,89.00
2023-05-10T22:43:39.912Z,88.70
2023-05-10T22:46:07.402Z,89.00
2023-05-10T22:48:35.634Z,89.60
2023-05-10T22:51:03.082Z,90.10
2023-05-10T22:53:30.528Z,88.90
2023-05-10T22:55:58.024Z,88.30
2023-05-10T22:58:25.871Z,88.60
2023-05-10T23:00:55.310Z,88.90
2023-05-10T23:03:26.811Z,89.00
2023-05-10T23:05:54.200Z,90.00
2023-05-10T23:08:22.477Z,89.30
2023-05-10T23:10:49.910Z,90.20
2023-05-10T23:13:18.900Z,88.90
2023-05-10T23:15:46.358Z,89.90
2023-05-10T23:18:13.858Z,88.40
2023-05-10T23:20:45.589Z,88.30
2023-05-10T23:23:13.030Z,88.90
2023-05-10T23:25:40.444Z,89.10
2023-05-10T23:28:07.825Z,88.90
2023-05-10T23:30:35.214Z,88.90
2023-05-10T23:33:03.220Z,89.90
2023-05-10T23:35:31.403Z,89.00
2023-05-10T23:37:58.791Z,90.10
2023-05-10T23:40:26.632Z,88.80
2023-05-10T23:42:54.069Z,88.90
2023-05-10T23:45:21.523Z,89.10
2023-05-10T23:47:48.972Z,89.50
2023-05-10T23:50:17.015Z,89.60
2023-05-10T23:52:44.693Z,89.70
2023-05-10T23:55:12.298Z,90.00
2023-05-10T23:57:39.701Z,90.50
